Time;durP1;ratioP1;P1;durP2;ratioP2;P2;SDS_P1;SDS_P2;PMS_P1;PMS_P2;Temp;Humidity;BMP_temperature;BMP_pressure;BME280_temperature;BME280_humidity;BME280_pressure;Samples;Min_cycle;Max_cycle;Signal;HPM_P1;HPM_P2
2022/08/04 00:01:05;;;;;;;;;;;23.80;99.90;;;;;;8431922;28;20306;-70
2022/08/04 00:05:11;;;;;;;;;;;23.80;99.90;;;;;;8431114;28;19927;-70
2022/08/04 00:09:16;;;;;;;;;;;23.70;99.90;;;;;;8425236;28;19939;-70
2022/08/04 00:13:21;;;;;;;;;;;23.70;99.90;;;;;;8432357;28;20370;-70
2022/08/04 00:17:25;;;;;;;;;;;23.60;99.90;;;;;;8446491;28;19974;-70
2022/08/04 00:21:27;;;;;;;;;;;23.60;99.90;;;;;;8431340;28;19924;-70
2022/08/04 00:25:29;;;;;;;;;;;23.50;99.90;;;;;;8431649;28;20228;-70
2022/08/04 00:29:32;;;;;;;;;;;23.50;99.90;;;;;;8425269;28;20018;-70
2022/08/04 00:33:34;;;;;;;;;;;23.40;99.90;;;;;;8426480;28;22035;-70
2022/08/04 00:37:39;;;;;;;;;;;23.40;99.90;;;;;;8401413;28;19919;-70
2022/08/04 00:41:59;;;;;;;;;;;23.40;99.90;;;;;;8461373;28;19920;-70
2022/08/04 00:46:04;;;;;;;;;;;23.30;99.90;;;;;;8465583;28;19973;-70
2022/08/04 00:50:15;;;;;;;;;;;23.20;99.90;;;;;;8456158;28;19920;-70
2022/08/04 00:54:19;;;;;;;;;;;23.20;99.90;;;;;;8464776;28;20249;-70
2022/08/04 00:58:25;;;;;;;;;;;23.10;99.90;;;;;;8434637;28;20374;-70
2022/08/04 01:02:45;;;;;;;;;;;23.10;99.90;;;;;;8465067;28;19919;-70
2022/08/04 01:07:06;;;;;;;;;;;23.00;99.90;;;;;;8463494;28;19920;-70
2022/08/04 01:11:14;;;;;;;;;;;23.00;99.90;;;;;;8451124;28;20021;-70
2022/08/04 01:15:34;;;;;;;;;;;22.90;99.90;;;;;;8453445;28;19926;-70
2022/08/04 01:20:01;;;;;;;;;;;22.90;99.90;;;;;;8459596;28;20480;-70
2022/08/04 01:24:02;;;;;;;;;;;22.80;99.90;;;;;;8463981;28;19920;-70
2022/08/04 01:28:10;;;;;;;;;;;22.80;99.90;;;;;;8460935;28;19934;-71
2022/08/04 01:32:30;;;;;;;;;;;22.70;99.90;;;;;;8449032;28;20378;-70
2022/08/04 01:36:35;;;;;;;;;;;22.70;99.90;;;;;;8446638;28;19920;-70
2022/08/04 01:40:37;;;;;;;;;;;22.60;99.90;;;;;;8455857;28;19967;-71
2022/08/04 01:44:39;;;;;;;;;;;22.60;99.90;;;;;;8438734;28;20256;-70
2022/08/04 01:48:43;;;;;;;;;;;22.50;99.90;;;;;;8461663;28;20359;-70
2022/08/04 01:52:45;;;;;;;;;;;22.50;99.90;;;;;;8463059;28;19935;-70
2022/08/04 01:56:52;;;;;;;;;;;22.50;99.90;;;;;;8441560;28;19924;-70
2022/08/04 02:11:04;;;;;;;;;;;22.30;99.90;;;;;;8450405;28;20401;-70
2022/08/04 02:15:05;;;;;;;;;;;22.30;99.90;;;;;;8461744;28;19923;-70
2022/08/04 02:19:07;;;;;;;;;;;22.20;99.90;;;;;;8460312;28;19920;-70
2022/08/04 02:23:12;;;;;;;;;;;22.20;99.90;;;;;;8462786;28;19920;-70
2022/08/04 02:37:23;;;;;;;;;;;22.10;99.90;;;;;;8428556;28;20022;-69
2022/08/04 02:41:25;;;;;;;;;;;22.10;99.90;;;;;;8445440;28;20533;-70
2022/08/04 02:45:27;;;;;;;;;;;22.00;99.90;;;;;;8461691;28;19919;-70
2022/08/04 02:49:29;;;;;;;;;;;22.00;99.90;;;;;;8459449;28;20259;-70
2022/08/04 02:53:35;;;;;;;;;;;21.90;99.90;;;;;;8462244;28;19993;-70
2022/08/04 03:07:53;;;;;;;;;;;21.70;99.90;;;;;;8450264;28;20452;-70
2022/08/04 03:12:13;;;;;;;;;;;21.70;99.90;;;;;;8430734;28;19931;-70
2022/08/04 03:16:33;;;;;;;;;;;21.70;99.90;;;;;;8461057;28;19939;-70
2022/08/04 03:20:45;;;;;;;;;;;21.70;99.90;;;;;;8459023;28;19923;-70
2022/08/04 03:25:04;;;;;;;;;;;21.60;99.90;;;;;;8460131;28;19926;-70
2022/08/04 03:29:29;;;;;;;;;;;21.60;99.90;;;;;;8437160;28;20290;-70
2022/08/04 03:33:49;;;;;;;;;;;21.60;99.90;;;;;;8436026;28;19919;-70
2022/08/04 03:38:03;;;;;;;;;;;21.50;99.90;;;;;;8443088;28;19943;-70
2022/08/04 03:42:28;;;;;;;;;;;21.50;99.90;;;;;;8468160;28;19950;-70
2022/08/04 03:46:40;;;;;;;;;;;21.50;99.90;;;;;;8447991;28;20370;-70
2022/08/04 03:50:44;;;;;;;;;;;21.50;99.90;;;;;;8465335;28;20331;-70
2022/08/04 03:55:18;;;;;;;;;;;21.40;99.90;;;;;;8466352;28;19926;-70
2022/08/04 03:59:32;;;;;;;;;;;21.40;99.90;;;;;;8410247;28;19927;-70
2022/08/04 04:03:49;;;;;;;;;;;21.40;99.90;;;;;;8466623;28;19920;-70
2022/08/04 04:08:09;;;;;;;;;;;21.30;99.90;;;;;;8451835;28;20451;-70
2022/08/04 04:12:26;;;;;;;;;;;21.20;99.90;;;;;;8457754;28;19927;-70
2022/08/04 04:17:07;;;;;;;;;;;21.20;99.90;;;;;;8466095;28;20279;-70
2022/08/04 04:21:29;;;;;;;;;;;21.20;99.90;;;;;;8348119;28;19964;-70
2022/08/04 04:25:35;;;;;;;;;;;21.20;99.90;;;;;;8419504;28;19920;-70
2022/08/04 04:29:37;;;;;;;;;;;21.10;99.90;;;;;;8456307;28;19919;-70
2022/08/04 04:33:41;;;;;;;;;;;21.10;99.90;;;;;;8465424;28;19920;-70
2022/08/04 04:48:14;;;;;;;;;;;21.20;99.90;;;;;;8430695;28;19931;-70
2022/08/04 04:52:18;;;;;;;;;;;21.20;99.90;;;;;;8413500;28;20294;-70
2022/08/04 04:56:29;;;;;;;;;;;21.10;99.90;;;;;;8428452;28;20375;-70
2022/08/04 05:00:38;;;;;;;;;;;21.10;99.90;;;;;;8427534;28;19920;-70
2022/08/04 05:04:57;;;;;;;;;;;21.10;99.90;;;;;;8412986;28;19924;-70
2022/08/04 05:09:07;;;;;;;;;;;21.20;99.90;;;;;;8417506;28;19920;-70
2022/08/04 05:13:28;;;;;;;;;;;21.30;99.90;;;;;;8418704;28;19920;-70
2022/08/04 05:17:51;;;;;;;;;;;21.40;99.90;;;;;;8426932;28;19920;-70
2022/08/04 05:22:08;;;;;;;;;;;21.50;99.90;;;;;;8430870;28;19920;-70
2022/08/04 05:26:15;;;;;;;;;;;21.60;99.90;;;;;;8430123;28;20019;-70
2022/08/04 05:30:17;;;;;;;;;;;21.60;99.90;;;;;;8427151;28;19927;-70
2022/08/04 05:34:27;;;;;;;;;;;21.60;99.90;;;;;;8429740;28;20363;-70
2022/08/04 05:38:33;;;;;;;;;;;21.70;99.90;;;;;;8400127;28;19924;-70
2022/08/04 05:42:36;;;;;;;;;;;21.80;99.90;;;;;;8426595;28;19924;-70
2022/08/04 05:46:38;;;;;;;;;;;21.80;99.90;;;;;;8433977;28;19923;-70
2022/08/04 05:50:39;;;;;;;;;;;21.90;99.90;;;;;;8431683;28;20387;-70
2022/08/04 05:54:42;;;;;;;;;;;22.00;99.90;;;;;;8404271;28;20384;-70
2022/08/04 05:58:45;;;;;;;;;;;22.00;99.90;;;;;;8389628;28;19928;-70
2022/08/04 06:02:48;;;;;;;;;;;22.10;99.90;;;;;;8391496;28;20418;-70
2022/08/04 06:06:51;;;;;;;;;;;22.20;99.90;;;;;;8388585;28;21556;-70
2022/08/04 06:10:55;;;;;;;;;;;22.30;99.90;;;;;;8392040;28;19931;-70
2022/08/04 06:14:58;;;;;;;;;;;22.40;99.90;;;;;;8393871;28;19925;-70
2022/08/04 06:19:02;;;;;;;;;;;22.50;99.90;;;;;;8388979;28;19928;-70
2022/08/04 06:23:26;;;;;;;;;;;22.50;99.90;;;;;;8379936;28;20028;-70
2022/08/04 06:27:28;;;;;;;;;;;22.60;99.90;;;;;;8387770;28;19939;-71
2022/08/04 06:31:42;;;;;;;;;;;22.70;99.90;;;;;;8386972;28;19924;-70
2022/08/04 06:36:05;;;;;;;;;;;22.70;99.90;;;;;;8390354;28;19929;-70
2022/08/04 06:40:08;;;;;;;;;;;22.70;99.90;;;;;;8384703;28;19932;-70
2022/08/04 06:44:30;;;;;;;;;;;22.70;99.90;;;;;;8382751;28;19924;-70
2022/08/04 06:48:31;;;;;;;;;;;22.70;99.90;;;;;;8387590;28;19928;-70
2022/08/04 06:52:34;;;;;;;;;;;22.80;99.90;;;;;;8388193;28;19925;-70
2022/08/04 06:56:38;;;;;;;;;;;22.90;99.90;;;;;;8390727;28;19932;-70
2022/08/04 07:00:40;;;;;;;;;;;22.90;99.90;;;;;;8386607;28;19935;-70
2022/08/04 07:04:42;;;;;;;;;;;22.90;99.90;;;;;;8385690;28;19935;-70
2022/08/04 07:08:44;;;;;;;;;;;22.90;99.90;;;;;;8369107;28;19928;-70
2022/08/04 07:12:47;;;;;;;;;;;22.90;99.90;;;;;;8389889;28;19970;-70
2022/08/04 07:16:49;;;;;;;;;;;22.90;99.90;;;;;;8390535;28;19928;-70
2022/08/04 07:20:51;;;;;;;;;;;22.90;99.90;;;;;;8387088;28;19931;-70
2022/08/04 07:24:53;;;;;;;;;;;23.00;99.90;;;;;;8387682;28;19935;-70
2022/08/04 07:28:55;;;;;;;;;;;23.00;99.90;;;;;;8386019;28;19928;-70
2022/08/04 07:32:57;;;;;;;;;;;23.00;99.90;;;;;;8389183;28;19936;-70
2022/08/04 07:36:59;;;;;;;;;;;23.00;99.90;;;;;;8387440;28;19925;-70
2022/08/04 07:41:03;;;;;;;;;;;23.10;99.90;;;;;;8386571;28;19939;-70
2022/08/04 07:45:24;;;;;;;;;;;23.10;99.90;;;;;;8389642;28;20328;-70
2022/08/04 07:49:26;;;;;;;;;;;23.20;99.90;;;;;;8388571;28;19943;-70
2022/08/04 07:53:48;;;;;;;;;;;23.20;99.90;;;;;;8392094;28;20011;-70
2022/08/04 07:57:56;;;;;;;;;;;23.20;99.90;;;;;;8388460;28;19951;-70
2022/08/04 08:01:58;;;;;;;;;;;23.30;99.90;;;;;;8386047;28;19929;-70
2022/08/04 08:05:59;;;;;;;;;;;23.40;99.90;;;;;;8370041;28;19925;-70
2022/08/04 08:10:22;;;;;;;;;;;23.40;99.90;;;;;;8386757;28;19932;-70
2022/08/04 08:14:24;;;;;;;;;;;23.50;99.90;;;;;;8391892;28;19920;-70
2022/08/04 08:18:26;;;;;;;;;;;23.50;99.90;;;;;;8392390;28;19928;-70
2022/08/04 08:22:27;;;;;;;;;;;23.60;99.90;;;;;;8407848;27;20333;-70
2022/08/04 08:26:29;;;;;;;;;;;23.70;99.90;;;;;;8393100;28;20366;-70
2022/08/04 08:30:32;;;;;;;;;;;23.80;99.90;;;;;;8396596;28;19920;-70
2022/08/04 08:34:34;;;;;;;;;;;23.90;99.90;;;;;;8394569;28;19924;-70
2022/08/04 08:38:54;;;;;;;;;;;24.00;99.90;;;;;;8392031;28;20371;-70
2022/08/04 08:43:14;;;;;;;;;;;24.10;99.90;;;;;;8393072;28;20007;-70
2022/08/04 08:47:53;;;;;;;;;;;24.10;99.90;;;;;;8393569;28;19966;-70
2022/08/04 09:02:31;;;;;;;;;;;24.40;99.90;;;;;;8392265;28;20474;-70
2022/08/04 09:06:33;;;;;;;;;;;24.50;99.90;;;;;;8393253;28;19930;-70
2022/08/04 09:10:42;;;;;;;;;;;24.50;99.90;;;;;;8392738;28;19921;-70
2022/08/04 09:14:47;;;;;;;;;;;24.60;99.90;;;;;;8397983;28;19935;-71
2022/08/04 09:18:52;;;;;;;;;;;24.70;99.90;;;;;;8390358;28;19935;-70
2022/08/04 09:23:06;;;;;;;;;;;24.80;99.90;;;;;;8392710;28;20321;-70
2022/08/04 09:27:12;;;;;;;;;;;24.80;99.90;;;;;;8394070;28;20232;-70
2022/08/04 09:31:16;;;;;;;;;;;24.90;99.90;;;;;;8391608;28;19920;-70
2022/08/04 09:35:18;;;;;;;;;;;24.80;99.90;;;;;;8374419;28;19920;-70
2022/08/04 09:39:25;;;;;;;;;;;24.80;99.90;;;;;;8371832;28;19920;-70
2022/08/04 09:43:36;;;;;;;;;;;24.90;99.90;;;;;;8390363;28;19960;-70
2022/08/04 09:48:06;;;;;;;;;;;25.00;99.90;;;;;;8394306;28;19962;-70
2022/08/04 09:52:27;;;;;;;;;;;25.10;99.90;;;;;;8393990;28;19921;-70
2022/08/04 09:56:38;;;;;;;;;;;25.10;99.90;;;;;;8391867;28;20367;-70
2022/08/04 10:00:44;;;;;;;;;;;25.20;99.90;;;;;;8388759;28;19924;-70
2022/08/04 10:04:47;;;;;;;;;;;25.20;99.90;;;;;;8388171;28;19924;-70
2022/08/04 10:08:58;;;;;;;;;;;25.20;99.90;;;;;;8388887;28;20008;-70
2022/08/04 10:13:00;;;;;;;;;;;25.20;99.90;;;;;;8401590;28;20394;-70
2022/08/04 10:17:04;;;;;;;;;;;25.20;99.90;;;;;;8369604;28;20372;-70
2022/08/04 10:21:26;;;;;;;;;;;25.10;99.90;;;;;;8388542;28;19920;-70
2022/08/04 10:25:46;;;;;;;;;;;25.10;99.90;;;;;;8366510;28;19920;-70
2022/08/04 10:30:11;;;;;;;;;;;25.10;99.90;;;;;;8389134;28;19920;-70
2022/08/04 10:34:16;;;;;;;;;;;25.00;99.90;;;;;;8389524;28;19920;-70
2022/08/04 10:38:21;;;;;;;;;;;25.00;99.90;;;;;;8385571;28;20284;-70
2022/08/04 10:42:29;;;;;;;;;;;24.90;99.90;;;;;;8389097;28;19928;-70
2022/08/04 10:46:33;;;;;;;;;;;24.80;99.90;;;;;;8387173;28;20363;-72
2022/08/04 10:50:36;;;;;;;;;;;24.80;99.90;;;;;;8405240;28;20292;-71
2022/08/04 10:54:56;;;;;;;;;;;24.80;99.90;;;;;;8389906;28;19920;-72
2022/08/04 10:59:05;;;;;;;;;;;24.80;99.90;;;;;;8387593;28;19927;-72
2022/08/04 11:03:07;;;;;;;;;;;24.70;99.90;;;;;;8388939;28;19920;-71
2022/08/04 11:07:10;;;;;;;;;;;24.60;99.90;;;;;;8389812;28;19921;-72
2022/08/04 11:11:12;;;;;;;;;;;24.60;99.90;;;;;;8389661;28;20291;-71
2022/08/04 11:15:22;;;;;;;;;;;24.60;99.90;;;;;;8387845;28;20363;-72
2022/08/04 11:19:24;;;;;;;;;;;24.60;99.90;;;;;;8382944;28;19928;-71
2022/08/04 11:23:45;;;;;;;;;;;24.70;99.90;;;;;;8388151;28;19974;-71
2022/08/04 11:28:05;;;;;;;;;;;24.70;99.90;;;;;;8391304;28;19920;-71
2022/08/04 11:32:18;;;;;;;;;;;24.70;99.90;;;;;;8388032;28;19982;-71
2022/08/04 11:36:43;;;;;;;;;;;24.80;99.90;;;;;;8388068;28;19925;-72
2022/08/04 11:40:46;;;;;;;;;;;24.90;99.90;;;;;;8379743;28;19954;-72
2022/08/04 11:45:06;;;;;;;;;;;25.00;99.90;;;;;;8389045;28;19981;-71
2022/08/04 11:49:19;;;;;;;;;;;25.20;99.90;;;;;;8387812;28;19924;-71
2022/08/04 11:53:22;;;;;;;;;;;25.30;99.90;;;;;;8395980;28;19936;-71
2022/08/04 11:57:25;;;;;;;;;;;25.50;99.90;;;;;;8392577;28;19926;-71
2022/08/04 12:01:49;;;;;;;;;;;25.60;99.90;;;;;;8406727;27;19920;-71
2022/08/04 12:05:57;;;;;;;;;;;25.80;99.90;;;;;;8395292;28;19920;-71
2022/08/04 12:10:01;;;;;;;;;;;25.90;99.90;;;;;;8394568;28;19927;-71
2022/08/04 12:14:11;;;;;;;;;;;26.00;99.90;;;;;;8393210;28;19920;-71
2022/08/04 12:18:16;;;;;;;;;;;26.00;99.90;;;;;;8391785;28;19947;-71
2022/08/04 12:22:22;;;;;;;;;;;26.00;99.90;;;;;;8374445;28;19989;-72
2022/08/04 12:26:26;;;;;;;;;;;26.00;99.90;;;;;;8396867;28;19920;-72
2022/08/04 12:30:30;;;;;;;;;;;26.10;99.90;;;;;;8396465;28;19928;-72
2022/08/04 12:35:07;;;;;;;;;;;26.10;99.90;;;;;;8392411;28;19963;-72
2022/08/04 12:39:11;;;;;;;;;;;26.10;99.90;;;;;;8391753;28;19924;-71
2022/08/04 12:43:18;;;;;;;;;;;26.20;99.90;;;;;;8374445;28;19924;-72
2022/08/04 12:47:25;;;;;;;;;;;26.30;99.90;;;;;;8392874;28;19920;-72
2022/08/04 12:51:35;;;;;;;;;;;26.30;99.90;;;;;;8391040;28;19963;-72
2022/08/04 12:55:58;;;;;;;;;;;26.40;99.90;;;;;;8392537;28;19946;-72
2022/08/04 13:00:02;;;;;;;;;;;26.40;99.90;;;;;;8388126;28;19924;-72
2022/08/04 13:04:11;;;;;;;;;;;26.40;99.90;;;;;;8391933;28;24080;-72
2022/08/04 13:08:14;;;;;;;;;;;26.50;99.90;;;;;;8394074;28;19921;-71
2022/08/04 13:12:18;;;;;;;;;;;26.60;99.90;;;;;;8406687;27;19920;-71
2022/08/04 13:16:28;;;;;;;;;;;26.60;99.90;;;;;;8389484;28;19921;-72
2022/08/04 13:20:31;;;;;;;;;;;26.60;99.90;;;;;;8388420;28;19924;-72
2022/08/04 13:24:34;;;;;;;;;;;26.70;99.90;;;;;;8392539;28;20331;-72
2022/08/04 13:28:58;;;;;;;;;;;26.80;99.90;;;;;;8391959;28;19959;-71
2022/08/04 13:33:01;;;;;;;;;;;26.80;99.90;;;;;;8373845;28;19920;-72
2022/08/04 13:37:03;;;;;;;;;;;26.70;99.90;;;;;;8392494;28;25063;-71
2022/08/04 13:41:05;;;;;;;;;;;26.70;99.90;;;;;;8388538;28;19924;-72
2022/08/04 13:45:08;;;;;;;;;;;26.70;99.90;;;;;;8390867;28;24087;-72
2022/08/04 13:49:13;;;;;;;;;;;26.70;99.90;;;;;;8387531;28;19920;-72
2022/08/04 13:53:37;;;;;;;;;;;26.70;99.90;;;;;;8389419;28;19963;-72
2022/08/04 13:57:43;;;;;;;;;;;26.70;99.90;;;;;;8387209;28;20379;-72
2022/08/04 14:01:55;;;;;;;;;;;26.70;99.90;;;;;;8389725;28;19927;-72
2022/08/04 14:06:05;;;;;;;;;;;26.70;99.90;;;;;;8391534;28;19942;-72
2022/08/04 14:10:11;;;;;;;;;;;26.70;99.90;;;;;;8385245;28;19935;-72
2022/08/04 14:14:14;;;;;;;;;;;26.80;99.90;;;;;;8388696;28;19920;-72
2022/08/04 14:18:20;;;;;;;;;;;26.80;99.90;;;;;;8385749;28;24085;-72
2022/08/04 14:22:24;;;;;;;;;;;26.80;99.90;;;;;;8388881;28;25146;-72
2022/08/04 14:26:35;;;;;;;;;;;26.80;99.90;;;;;;8388279;28;19928;-71
2022/08/04 14:30:37;;;;;;;;;;;26.80;99.90;;;;;;8399525;28;25069;-71
2022/08/04 14:34:40;;;;;;;;;;;26.70;99.90;;;;;;8385956;28;19925;-72
2022/08/04 14:38:51;;;;;;;;;;;26.80;99.90;;;;;;8386307;28;19924;-71
2022/08/04 14:42:54;;;;;;;;;;;26.80;99.90;;;;;;8369301;28;20371;-71
2022/08/04 14:46:58;;;;;;;;;;;26.80;99.90;;;;;;8386947;28;19924;-72
2022/08/04 14:50:59;;;;;;;;;;;26.90;99.90;;;;;;8387567;28;19936;-71
2022/08/04 14:55:14;;;;;;;;;;;27.00;99.90;;;;;;8386421;28;20308;-72
2022/08/04 14:59:17;;;;;;;;;;;26.90;99.90;;;;;;8388062;28;25073;-71
2022/08/04 15:03:20;;;;;;;;;;;26.90;99.90;;;;;;8385463;28;19920;-72
2022/08/04 15:07:22;;;;;;;;;;;26.90;99.90;;;;;;8388211;28;19928;-72
2022/08/04 15:11:24;;;;;;;;;;;26.80;99.90;;;;;;8388128;28;19939;-72
2022/08/04 15:15:26;;;;;;;;;;;26.80;99.90;;;;;;8386822;28;19920;-71
2022/08/04 15:19:37;;;;;;;;;;;26.60;99.90;;;;;;8385358;28;19920;-71
2022/08/04 15:23:39;;;;;;;;;;;26.60;99.90;;;;;;8387381;28;24069;-72
2022/08/04 15:27:41;;;;;;;;;;;26.60;99.90;;;;;;8390017;28;20421;-71
2022/08/04 15:31:44;;;;;;;;;;;26.60;99.90;;;;;;8379611;28;20371;-72
2022/08/04 15:36:20;;;;;;;;;;;26.60;99.90;;;;;;8391743;28;19921;-72
2022/08/04 15:40:24;;;;;;;;;;;26.60;99.90;;;;;;8394485;28;19927;-72
2022/08/04 15:44:52;;;;;;;;;;;26.90;99.90;;;;;;8392166;28;24092;-71
2022/08/04 15:48:54;;;;;;;;;;;27.10;99.90;;;;;;8394924;28;20342;-72
2022/08/04 15:52:56;;;;;;;;;;;27.40;99.90;;;;;;8393016;28;19920;-72
2022/08/04 15:57:10;;;;;;;;;;;27.60;99.90;;;;;;8392553;28;19968;-72
2022/08/04 16:01:12;;;;;;;;;;;27.80;99.90;;;;;;8392190;28;19927;-72
2022/08/04 16:05:14;;;;;;;;;;;28.10;99.90;;;;;;8392967;28;19943;-72
2022/08/04 16:09:20;;;;;;;;;;;28.50;99.90;;;;;;8393746;28;19959;-72
2022/08/04 16:13:22;;;;;;;;;;;29.00;99.90;;;;;;8392268;28;19927;-72
2022/08/04 16:17:27;;;;;;;;;;;29.30;99.90;;;;;;8381236;28;19934;-71
2022/08/04 16:21:31;;;;;;;;;;;29.60;99.90;;;;;;8392702;28;20402;-72
2022/08/04 16:25:43;;;;;;;;;;;29.80;99.90;;;;;;8392137;28;25126;-72
2022/08/04 16:40:12;;;;;;;;;;;30.20;99.90;;;;;;8390618;28;20456;-72
2022/08/04 16:44:35;;;;;;;;;;;30.10;99.90;;;;;;8390409;28;20299;-71
2022/08/04 16:49:05;;;;;;;;;;;29.70;99.90;;;;;;8391248;28;19928;-72
2022/08/04 16:53:09;;;;;;;;;;;29.00;99.90;;;;;;8393983;28;20267;-72
2022/08/04 16:57:15;;;;;;;;;;;28.50;99.90;;;;;;8384543;28;19924;-72
2022/08/04 17:01:18;;;;;;;;;;;28.20;99.90;;;;;;8389925;28;19920;-72
2022/08/04 17:05:33;;;;;;;;;;;28.00;99.90;;;;;;8393518;28;20383;-72
2022/08/04 17:09:48;;;;;;;;;;;27.90;99.90;;;;;;8391924;28;19931;-71
2022/08/04 17:23:58;;;;;;;;;;;27.70;99.90;;;;;;8389954;28;19919;-71
2022/08/04 17:28:20;;;;;;;;;;;27.40;99.90;;;;;;8405300;27;19928;-72
2022/08/04 17:32:29;;;;;;;;;;;27.20;99.90;;;;;;8396103;28;19921;-72
2022/08/04 17:36:30;;;;;;;;;;;27.00;99.90;;;;;;8391222;28;19936;-72
2022/08/04 17:40:32;;;;;;;;;;;26.90;99.90;;;;;;8388510;28;20291;-72
2022/08/04 17:44:37;;;;;;;;;;;26.80;99.90;;;;;;8407046;28;19924;-71
2022/08/04 17:48:40;;;;;;;;;;;26.60;99.90;;;;;;8390811;28;19994;-72
2022/08/04 17:52:41;;;;;;;;;;;26.30;99.90;;;;;;8393931;28;20232;-72
2022/08/04 17:56:49;;;;;;;;;;;26.20;99.90;;;;;;8391159;28;19943;-71
2022/08/04 18:00:59;;;;;;;;;;;26.20;99.90;;;;;;8390976;28;19924;-72
2022/08/04 18:05:28;;;;;;;;;;;26.10;99.90;;;;;;8391488;28;19975;-72
2022/08/04 18:09:53;;;;;;;;;;;26.10;99.90;;;;;;8390535;28;19974;-72
2022/08/04 18:14:03;;;;;;;;;;;26.10;99.90;;;;;;8374069;28;20393;-72
2022/08/04 18:18:15;;;;;;;;;;;26.10;99.90;;;;;;8389702;28;20317;-71
2022/08/04 18:22:22;;;;;;;;;;;26.00;99.90;;;;;;8390071;28;19921;-72
2022/08/04 18:26:28;;;;;;;;;;;26.00;99.90;;;;;;8387716;28;19924;-72
2022/08/04 18:30:30;;;;;;;;;;;26.00;99.90;;;;;;8392631;28;20369;-71
2022/08/04 18:34:52;;;;;;;;;;;25.90;99.90;;;;;;8390366;28;19920;-71
2022/08/04 18:38:55;;;;;;;;;;;25.80;99.90;;;;;;8386072;28;19920;-72
2022/08/04 18:42:59;;;;;;;;;;;25.70;99.90;;;;;;8387846;28;19990;-72
2022/08/04 18:47:01;;;;;;;;;;;25.60;99.90;;;;;;8388522;28;19929;-71
2022/08/04 18:51:21;;;;;;;;;;;25.60;99.90;;;;;;8391266;28;19920;-71
2022/08/04 18:55:25;;;;;;;;;;;25.50;99.90;;;;;;8389020;28;19979;-71
2022/08/04 18:59:46;;;;;;;;;;;25.50;99.90;;;;;;8383528;28;19920;-71
2022/08/04 19:03:48;;;;;;;;;;;25.40;99.90;;;;;;8386496;28;19920;-72
2022/08/04 19:07:54;;;;;;;;;;;25.40;99.90;;;;;;8388815;28;19947;-71
2022/08/04 19:12:12;;;;;;;;;;;25.40;99.90;;;;;;8388834;28;20011;-71
2022/08/04 19:16:13;;;;;;;;;;;25.30;99.90;;;;;;8401168;28;19927;-72
2022/08/04 19:20:17;;;;;;;;;;;25.20;99.90;;;;;;8388033;28;20347;-72
2022/08/04 19:24:25;;;;;;;;;;;25.20;99.90;;;;;;8391034;28;19920;-72
2022/08/04 19:28:35;;;;;;;;;;;25.10;99.90;;;;;;8389310;28;19921;-71
2022/08/04 19:32:37;;;;;;;;;;;25.00;99.90;;;;;;8390422;28;19924;-72
2022/08/04 19:36:39;;;;;;;;;;;25.00;99.90;;;;;;8381669;28;20322;-71
2022/08/04 19:40:41;;;;;;;;;;;24.90;99.90;;;;;;8389454;28;19942;-72
2022/08/04 19:44:42;;;;;;;;;;;24.80;99.90;;;;;;8388053;28;20394;-71
2022/08/04 19:48:45;;;;;;;;;;;24.80;99.90;;;;;;8387106;28;19920;-71
2022/08/04 19:52:59;;;;;;;;;;;24.70;99.90;;;;;;8383799;28;19920;-71
2022/08/04 19:57:01;;;;;;;;;;;24.60;99.90;;;;;;8386124;28;19921;-72
2022/08/04 20:01:02;;;;;;;;;;;24.60;99.90;;;;;;8387509;28;19928;-71
2022/08/04 20:05:04;;;;;;;;;;;24.50;99.90;;;;;;8387319;28;19931;-71
2022/08/04 20:09:09;;;;;;;;;;;24.50;99.90;;;;;;8389586;28;19943;-72
2022/08/04 20:13:25;;;;;;;;;;;24.50;99.90;;;;;;8376796;28;19959;-71
2022/08/04 20:17:31;;;;;;;;;;;24.50;99.90;;;;;;8392064;28;19920;-71
2022/08/04 20:21:53;;;;;;;;;;;24.50;99.90;;;;;;8396913;28;19924;-72
2022/08/04 20:25:57;;;;;;;;;;;24.40;99.90;;;;;;8394734;28;19983;-71
2022/08/04 20:29:58;;;;;;;;;;;24.30;99.90;;;;;;8394190;28;19931;-71
2022/08/04 20:34:00;;;;;;;;;;;24.30;99.90;;;;;;8392500;28;20287;-71
2022/08/04 20:38:02;;;;;;;;;;;24.20;99.90;;;;;;8390403;28;19928;-71
2022/08/04 20:42:04;;;;;;;;;;;24.20;99.90;;;;;;8407325;27;19924;-71
2022/08/04 20:46:05;;;;;;;;;;;24.20;99.90;;;;;;8390963;28;19927;-72
2022/08/04 20:50:19;;;;;;;;;;;24.10;99.90;;;;;;8393111;28;19970;-71
2022/08/04 20:54:30;;;;;;;;;;;24.10;99.90;;;;;;8390609;28;20359;-72
2022/08/04 20:58:32;;;;;;;;;;;24.10;99.90;;;;;;8391755;28;19928;-71
2022/08/04 21:02:34;;;;;;;;;;;24.00;99.90;;;;;;8412113;28;19923;-72
2022/08/04 21:06:35;;;;;;;;;;;24.00;99.90;;;;;;8458445;28;19920;-71
2022/08/04 21:10:38;;;;;;;;;;;24.00;99.90;;;;;;8465189;28;19965;-71
2022/08/04 21:14:40;;;;;;;;;;;23.90;99.90;;;;;;8464682;28;19950;-71
2022/08/04 21:18:42;;;;;;;;;;;23.90;99.90;;;;;;8459998;28;19923;-71
2022/08/04 21:32:51;;;;;;;;;;;23.80;99.90;;;;;;8462197;28;19962;-71
2022/08/04 21:36:53;;;;;;;;;;;23.80;99.90;;;;;;8436267;28;20359;-71
2022/08/04 21:40:56;;;;;;;;;;;23.80;99.90;;;;;;8452016;28;20347;-71
2022/08/04 21:44:57;;;;;;;;;;;23.70;99.90;;;;;;8438760;28;19923;-71
2022/08/04 21:48:59;;;;;;;;;;;23.70;99.90;;;;;;8458262;28;19931;-71
2022/08/04 21:53:01;;;;;;;;;;;23.60;99.90;;;;;;8463545;28;19919;-71
2022/08/04 21:57:03;;;;;;;;;;;23.50;99.90;;;;;;8462636;28;19931;-71
2022/08/04 22:01:06;;;;;;;;;;;23.50;99.90;;;;;;8462349;28;19919;-71
2022/08/04 22:05:13;;;;;;;;;;;23.40;99.90;;;;;;8463022;28;19924;-71
2022/08/04 22:09:16;;;;;;;;;;;23.40;99.90;;;;;;8461754;28;19950;-71
2022/08/04 22:13:17;;;;;;;;;;;23.30;99.90;;;;;;8462771;28;20382;-71
2022/08/04 22:17:23;;;;;;;;;;;23.20;99.90;;;;;;8459420;28;19923;-71
2022/08/04 22:21:25;;;;;;;;;;;23.20;99.90;;;;;;8461552;28;19965;-71
2022/08/04 22:25:27;;;;;;;;;;;23.10;99.90;;;;;;8462355;28;20358;-71
2022/08/04 22:29:31;;;;;;;;;;;23.10;99.90;;;;;;8460944;28;19926;-71
2022/08/04 22:33:33;;;;;;;;;;;23.00;99.90;;;;;;8461716;28;19919;-71
2022/08/04 22:37:55;;;;;;;;;;;23.00;99.90;;;;;;8440420;28;19962;-72
2022/08/04 22:42:08;;;;;;;;;;;23.00;99.90;;;;;;8461665;28;19926;-71
2022/08/04 22:46:18;;;;;;;;;;;23.00;99.90;;;;;;8457590;28;19923;-71
2022/08/04 22:50:20;;;;;;;;;;;23.00;99.90;;;;;;8460841;28;19920;-71
2022/08/04 22:54:27;;;;;;;;;;;22.90;99.90;;;;;;8461522;28;19920;-71
2022/08/04 22:58:30;;;;;;;;;;;22.90;99.90;;;;;;8459972;28;19977;-71
2022/08/04 23:02:32;;;;;;;;;;;22.90;99.90;;;;;;8436315;28;19919;-71
2022/08/04 23:06:33;;;;;;;;;;;22.80;99.90;;;;;;8459489;28;20057;-71
2022/08/04 23:10:35;;;;;;;;;;;22.80;99.90;;;;;;8460161;28;19942;-71
2022/08/04 23:14:37;;;;;;;;;;;22.80;99.90;;;;;;8460707;28;20259;-71
2022/08/04 23:18:39;;;;;;;;;;;22.70;99.90;;;;;;8433877;28;19927;-71
2022/08/04 23:22:43;;;;;;;;;;;22.70;99.90;;;;;;8447575;28;19920;-71
2022/08/04 23:26:47;;;;;;;;;;;22.70;99.90;;;;;;8437593;28;19927;-71
2022/08/04 23:30:49;;;;;;;;;;;22.60;99.90;;;;;;8460411;28;20420;-71
2022/08/04 23:34:50;;;;;;;;;;;22.60;99.90;;;;;;8460129;28;20354;-71
2022/08/04 23:38:52;;;;;;;;;;;22.60;99.90;;;;;;8430489;28;20445;-71
2022/08/04 23:42:54;;;;;;;;;;;22.50;99.90;;;;;;8460901;28;19920;-71
2022/08/04 23:46:56;;;;;;;;;;;22.60;99.90;;;;;;8459730;28;19919;-71
2022/08/04 23:51:06;;;;;;;;;;;22.50;99.90;;;;;;8446100;28;19924;-71
2022/08/04 23:55:10;;;;;;;;;;;22.50;99.90;;;;;;8467254;28;19995;-71
2022/08/04 23:59:16;;;;;;;;;;;22.50;99.90;;;;;;8465703;28;20244;-71
